createdAt,value
2017-08-13T00:01:51.252Z,15.59
2017-08-13T00:04:19.081Z,15.52
2017-08-13T00:06:46.960Z,15.43
2017-08-13T00:09:14.825Z,15.37
2017-08-13T00:11:42.711Z,15.33
2017-08-13T00:14:10.575Z,15.34
2017-08-13T00:16:38.404Z,15.34
2017-08-13T00:19:06.213Z,15.31
2017-08-13T00:21:34.024Z,15.25
2017-08-13T00:24:01.808Z,15.21
2017-08-13T00:26:29.642Z,15.14
2017-08-13T00:28:57.525Z,15.08
2017-08-13T00:31:25.369Z,15.04
2017-08-13T00:33:53.236Z,15.00
2017-08-13T00:36:21.046Z,14.93
2017-08-13T00:38:48.963Z,14.89
2017-08-13T00:41:16.807Z,14.85
2017-08-13T00:43:44.684Z,14.82
2017-08-13T00:46:12.518Z,14.79
2017-08-13T00:48:40.344Z,14.77
2017-08-13T00:51:08.197Z,14.75
2017-08-13T00:53:36.048Z,14.71
2017-08-13T00:56:03.934Z,14.71
2017-08-13T00:58:31.751Z,14.69
2017-08-13T01:00:59.665Z,14.65
2017-08-13T01:03:27.464Z,14.66
2017-08-13T01:05:55.391Z,14.65
2017-08-13T01:08:23.217Z,14.64
2017-08-13T01:10:51.089Z,14.64
2017-08-13T01:13:18.901Z,14.64
2017-08-13T01:15:46.809Z,14.62
2017-08-13T01:18:14.609Z,14.63
2017-08-13T01:20:42.392Z,14.62
2017-08-13T01:23:10.207Z,14.60
2017-08-13T01:25:38.028Z,14.57
2017-08-13T01:28:05.895Z,14.58
2017-08-13T01:30:33.733Z,14.53
2017-08-13T01:33:01.600Z,14.52
2017-08-13T01:35:29.428Z,14.53
2017-08-13T01:37:57.229Z,14.54
2017-08-13T01:40:25.064Z,14.52
2017-08-13T01:42:52.820Z,14.53
2017-08-13T01:45:20.623Z,14.54
2017-08-13T01:47:48.517Z,14.52
2017-08-13T01:50:16.354Z,14.50
2017-08-13T01:52:44.156Z,14.46
2017-08-13T01:55:12.013Z,14.44
2017-08-13T01:57:39.853Z,14.40
2017-08-13T02:00:07.715Z,14.34
2017-08-13T02:02:35.537Z,14.34
2017-08-13T02:05:03.403Z,14.32
2017-08-13T02:07:31.264Z,14.29
2017-08-13T02:09:59.106Z,14.27
2017-08-13T02:12:26.917Z,14.26
2017-08-13T02:14:54.783Z,14.22
2017-08-13T02:17:22.623Z,14.18
2017-08-13T02:19:50.455Z,14.13
2017-08-13T02:22:18.315Z,14.14
2017-08-13T02:24:46.138Z,14.18
2017-08-13T02:27:14.019Z,14.18
2017-08-13T02:29:41.888Z,14.18
2017-08-13T02:32:09.755Z,14.13
2017-08-13T02:34:37.576Z,14.10
2017-08-13T02:37:05.483Z,14.04
2017-08-13T02:39:33.322Z,14.03
2017-08-13T02:42:01.095Z,14.05
2017-08-13T02:44:28.926Z,14.05
2017-08-13T02:46:56.783Z,14.02
2017-08-13T02:49:24.595Z,14.00
2017-08-13T02:51:52.420Z,14.01
2017-08-13T02:54:20.209Z,14.02
2017-08-13T02:56:48.047Z,14.06
2017-08-13T02:59:15.924Z,14.07
2017-08-13T03:01:43.742Z,14.08
2017-08-13T03:04:11.606Z,14.13
2017-08-13T03:06:39.343Z,14.13
2017-08-13T03:09:07.188Z,14.06
2017-08-13T03:11:35.009Z,14.04
2017-08-13T03:14:02.890Z,14.08
2017-08-13T03:16:30.716Z,14.09
2017-08-13T03:18:58.581Z,14.10
2017-08-13T03:21:26.409Z,14.14
2017-08-13T03:23:54.193Z,14.14
2017-08-13T03:26:22.035Z,14.17
2017-08-13T03:28:49.843Z,14.24
2017-08-13T03:31:17.705Z,14.33
2017-08-13T03:33:45.539Z,14.39
2017-08-13T03:36:13.416Z,14.44
2017-08-13T03:38:41.225Z,14.47
2017-08-13T03:41:09.142Z,14.50
2017-08-13T03:43:36.969Z,14.52
2017-08-13T03:46:04.829Z,14.50
2017-08-13T03:48:32.653Z,14.52
2017-08-13T03:51:00.505Z,14.53
2017-08-13T03:53:28.323Z,14.53
2017-08-13T03:55:56.118Z,14.54
2017-08-13T03:58:23.951Z,14.55
2017-08-13T04:00:51.776Z,14.56
2017-08-13T04:03:19.618Z,14.57
2017-08-13T04:05:47.499Z,14.58
2017-08-13T04:08:15.365Z,14.57
2017-08-13T04:10:43.201Z,14.59
2017-08-13T04:13:11.100Z,14.58
2017-08-13T04:15:38.912Z,14.60
2017-08-13T04:18:06.770Z,14.61
2017-08-13T04:20:34.601Z,14.62
2017-08-13T04:23:02.457Z,14.61
2017-08-13T04:25:30.281Z,14.62
2017-08-13T04:27:58.117Z,14.63
2017-08-13T04:30:25.993Z,14.64
2017-08-13T04:32:53.821Z,14.66
2017-08-13T04:35:21.692Z,14.66
2017-08-13T04:37:49.515Z,14.68
2017-08-13T04:40:17.423Z,14.73
2017-08-13T04:42:45.153Z,14.75
2017-08-13T04:45:13.015Z,14.75
2017-08-13T04:47:40.834Z,14.76
2017-08-13T04:50:08.724Z,14.79
2017-08-13T04:52:36.533Z,14.85
2017-08-13T04:55:04.400Z,14.91
2017-08-13T04:57:32.139Z,14.95
2017-08-13T04:59:59.972Z,15.02
2017-08-13T05:02:27.849Z,15.06
2017-08-13T05:04:55.701Z,15.10
2017-08-13T05:07:23.604Z,15.11
2017-08-13T05:09:51.451Z,15.09
2017-08-13T05:12:19.315Z,15.11
2017-08-13T05:14:47.113Z,15.10
2017-08-13T05:17:14.981Z,15.11
2017-08-13T05:19:42.789Z,15.13
2017-08-13T05:22:10.643Z,15.16
2017-08-13T05:24:38.451Z,15.16
2017-08-13T05:27:06.343Z,15.16
2017-08-13T05:29:34.193Z,15.18
2017-08-13T05:32:02.060Z,15.16
2017-08-13T05:34:29.878Z,15.14
2017-08-13T05:36:57.703Z,15.12
2017-08-13T05:39:25.589Z,15.17
2017-08-13T05:41:53.400Z,15.22
2017-08-13T05:44:21.267Z,15.29
2017-08-13T05:46:49.084Z,15.36
2017-08-13T05:49:16.961Z,15.34
2017-08-13T05:51:44.796Z,15.40
2017-08-13T05:54:12.686Z,15.46
2017-08-13T05:56:40.498Z,15.52
2017-08-13T05:59:08.376Z,15.58
2017-08-13T06:01:36.231Z,15.65
2017-08-13T06:04:04.145Z,15.70
2017-08-13T06:06:31.996Z,15.74
2017-08-13T06:08:59.869Z,15.77
2017-08-13T06:11:27.700Z,15.82
2017-08-13T06:13:55.535Z,15.83
2017-08-13T06:16:23.436Z,15.81
2017-08-13T06:18:51.282Z,15.82
2017-08-13T06:21:19.164Z,15.85
2017-08-13T06:23:47.033Z,15.85
2017-08-13T06:26:14.908Z,15.88
2017-08-13T06:28:42.716Z,15.96
2017-08-13T06:31:10.629Z,16.09
2017-08-13T06:33:38.381Z,16.19
2017-08-13T06:36:06.265Z,16.25
2017-08-13T06:38:34.104Z,16.31
2017-08-13T06:41:01.970Z,16.36
2017-08-13T06:43:29.697Z,16.39
2017-08-13T06:45:57.506Z,16.38
2017-08-13T06:48:25.231Z,16.49
2017-08-13T06:50:52.984Z,16.61
2017-08-13T06:53:20.728Z,16.60
2017-08-13T06:55:48.430Z,16.58
2017-08-13T06:58:16.215Z,16.59
2017-08-13T07:00:43.963Z,16.68
2017-08-13T07:03:11.721Z,16.87
2017-08-13T07:05:39.450Z,17.14
2017-08-13T07:08:07.247Z,17.38
2017-08-13T07:10:35.015Z,17.40
2017-08-13T07:13:02.798Z,17.55
2017-08-13T07:15:30.512Z,17.30
2017-08-13T07:17:58.332Z,17.21
2017-08-13T07:20:26.053Z,17.43
2017-08-13T07:22:54.375Z,17.65
2017-08-13T07:25:22.175Z,17.82
2017-08-13T07:27:49.931Z,18.20
2017-08-13T07:30:17.675Z,18.38
2017-08-13T07:32:45.417Z,18.14
2017-08-13T07:35:13.200Z,17.80
2017-08-13T07:37:40.932Z,17.48
2017-08-13T07:40:08.709Z,17.46
2017-08-13T07:42:36.447Z,17.79
2017-08-13T07:45:04.325Z,18.19
2017-08-13T07:47:32.145Z,18.38
2017-08-13T07:49:59.931Z,18.47
2017-08-13T07:52:27.751Z,18.15
2017-08-13T07:54:55.605Z,17.91
2017-08-13T07:57:23.382Z,17.81
2017-08-13T07:59:51.311Z,18.27
2017-08-13T08:02:19.173Z,18.47
2017-08-13T08:04:47.004Z,18.24
2017-08-13T08:07:14.908Z,18.19
2017-08-13T08:09:42.734Z,18.53
2017-08-13T08:12:10.535Z,19.03
2017-08-13T08:14:38.349Z,19.39
2017-08-13T08:17:06.202Z,19.28
2017-08-13T08:19:33.972Z,19.12
2017-08-13T08:22:01.845Z,19.20
2017-08-13T08:24:29.716Z,19.62
2017-08-13T08:26:57.581Z,19.60
2017-08-13T08:29:25.406Z,19.03
2017-08-13T08:31:53.282Z,18.50
2017-08-13T08:34:21.098Z,18.76
2017-08-13T08:36:48.903Z,19.46
2017-08-13T08:39:16.717Z,19.63
2017-08-13T08:41:44.568Z,19.39
2017-08-13T08:44:12.428Z,18.95
2017-08-13T08:46:40.280Z,19.01
2017-08-13T08:49:08.059Z,18.72
2017-08-13T08:51:35.879Z,18.38
2017-08-13T08:54:03.652Z,18.36
2017-08-13T08:56:31.362Z,18.83
2017-08-13T08:58:59.156Z,19.39
2017-08-13T09:01:26.890Z,19.63
2017-08-13T09:03:54.705Z,19.56
2017-08-13T09:06:22.568Z,19.45
2017-08-13T09:08:50.415Z,19.14
2017-08-13T09:11:18.296Z,18.97
2017-08-13T09:13:46.132Z,19.05
2017-08-13T09:16:14.004Z,19.43
2017-08-13T09:18:41.850Z,19.84
2017-08-13T09:21:09.723Z,20.14
2017-08-13T09:23:37.571Z,20.39
2017-08-13T09:26:05.442Z,20.63
2017-08-13T09:28:33.250Z,20.97
2017-08-13T09:31:02.093Z,20.89
2017-08-13T09:33:29.921Z,20.96
2017-08-13T09:35:57.849Z,20.98
2017-08-13T09:38:25.700Z,20.77
2017-08-13T09:40:53.536Z,20.55
2017-08-13T09:43:21.343Z,20.48
2017-08-13T09:45:49.080Z,20.70
2017-08-13T09:48:16.876Z,20.97
2017-08-13T09:50:44.588Z,21.27
2017-08-13T09:53:12.383Z,21.45
2017-08-13T09:55:40.130Z,21.56
2017-08-13T09:58:07.920Z,21.64
2017-08-13T10:00:35.755Z,21.69
2017-08-13T10:03:03.667Z,21.33
2017-08-13T10:05:31.552Z,20.98
2017-08-13T10:07:59.488Z,20.75
2017-08-13T10:10:27.353Z,20.89
2017-08-13T10:12:55.216Z,20.93
2017-08-13T10:15:23.119Z,21.30
2017-08-13T10:17:50.954Z,21.39
2017-08-13T10:20:18.848Z,21.84
2017-08-13T10:22:46.690Z,22.27
2017-08-13T10:25:14.579Z,21.88
2017-08-13T10:27:42.425Z,21.39
2017-08-13T10:30:10.320Z,21.23
2017-08-13T10:32:38.161Z,21.19
2017-08-13T10:35:06.018Z,21.34
2017-08-13T10:37:33.857Z,21.22
2017-08-13T10:40:01.738Z,21.47
2017-08-13T10:42:29.579Z,21.68
2017-08-13T10:44:57.431Z,21.74
2017-08-13T10:47:25.210Z,21.99
2017-08-13T10:49:53.063Z,22.20
2017-08-13T10:52:20.917Z,22.55
2017-08-13T10:54:48.743Z,22.81
2017-08-13T10:57:16.625Z,23.16
2017-08-13T10:59:44.455Z,22.63
2017-08-13T11:02:12.345Z,22.54
2017-08-13T11:04:40.164Z,22.72
2017-08-13T11:07:08.522Z,22.20
2017-08-13T11:09:36.355Z,21.94
2017-08-13T11:12:04.289Z,21.98
2017-08-13T11:14:32.124Z,21.58
2017-08-13T11:16:59.997Z,21.13
2017-08-13T11:19:27.858Z,20.45
2017-08-13T11:21:55.750Z,19.67
2017-08-13T11:24:23.594Z,18.99
2017-08-13T11:26:51.499Z,18.71
2017-08-13T11:29:19.316Z,18.54
2017-08-13T11:31:47.202Z,18.47
2017-08-13T11:34:15.056Z,18.41
2017-08-13T11:36:42.957Z,18.23
2017-08-13T11:39:10.764Z,18.19
2017-08-13T11:41:38.640Z,18.22
2017-08-13T11:44:06.463Z,18.32
2017-08-13T11:46:34.345Z,18.54
2017-08-13T11:49:02.157Z,18.85
2017-08-13T11:51:30.166Z,19.37
2017-08-13T11:53:57.963Z,20.09
2017-08-13T11:56:25.806Z,20.56
2017-08-13T11:58:53.694Z,20.93
2017-08-13T12:01:21.523Z,20.71
2017-08-13T12:03:49.410Z,20.41
2017-08-13T12:06:17.294Z,20.23
2017-08-13T12:08:45.151Z,20.15
2017-08-13T12:11:12.964Z,20.19
2017-08-13T12:13:41.187Z,20.05
2017-08-13T12:16:09.027Z,20.11
2017-08-13T12:18:36.903Z,20.43
2017-08-13T12:21:04.727Z,20.64
2017-08-13T12:23:32.584Z,20.75
2017-08-13T12:26:00.435Z,20.96
2017-08-13T12:28:28.377Z,21.04
2017-08-13T12:30:56.194Z,20.87
2017-08-13T12:33:23.996Z,20.71
2017-08-13T12:35:51.869Z,20.82
2017-08-13T12:38:19.701Z,20.67
2017-08-13T12:40:47.567Z,20.49
2017-08-13T12:43:15.387Z,20.39
2017-08-13T12:45:43.316Z,20.27
2017-08-13T12:48:11.169Z,20.09
2017-08-13T12:50:39.082Z,19.95
2017-08-13T12:53:06.922Z,19.75
2017-08-13T12:55:34.830Z,19.73
2017-08-13T12:58:02.694Z,19.65
2017-08-13T13:00:30.565Z,19.62
2017-08-13T13:02:58.468Z,19.72
2017-08-13T13:05:26.313Z,19.94
2017-08-13T13:07:54.250Z,20.41
2017-08-13T13:10:22.146Z,20.41
2017-08-13T13:12:49.935Z,20.57
2017-08-13T13:15:17.787Z,20.55
2017-08-13T13:17:45.661Z,20.45
2017-08-13T13:20:13.513Z,20.34
2017-08-13T13:22:41.417Z,20.59
2017-08-13T13:25:09.262Z,21.31
2017-08-13T13:27:37.162Z,21.78
2017-08-13T13:30:04.998Z,22.08
2017-08-13T13:32:32.874Z,21.77
2017-08-13T13:35:00.695Z,21.40
2017-08-13T13:37:28.540Z,21.16
2017-08-13T13:39:56.420Z,21.15
2017-08-13T13:42:24.175Z,21.14
2017-08-13T13:44:52.064Z,21.03
2017-08-13T13:47:19.928Z,20.79
2017-08-13T13:49:47.823Z,20.59
2017-08-13T13:52:15.680Z,20.49
2017-08-13T13:54:43.570Z,20.42
2017-08-13T13:57:11.396Z,20.35
2017-08-13T13:59:39.296Z,20.35
2017-08-13T14:02:07.152Z,20.39
2017-08-13T14:04:35.057Z,20.43
2017-08-13T14:07:02.953Z,20.38
2017-08-13T14:09:30.903Z,20.38
2017-08-13T14:11:58.764Z,20.31
2017-08-13T14:14:26.600Z,20.22
2017-08-13T14:16:54.506Z,20.14
2017-08-13T14:19:22.348Z,20.08
2017-08-13T14:21:50.231Z,20.07
2017-08-13T14:24:18.113Z,20.17
2017-08-13T14:26:46.004Z,20.31
2017-08-13T14:29:13.831Z,20.38
2017-08-13T14:31:41.714Z,20.45
2017-08-13T14:34:09.552Z,20.46
2017-08-13T14:36:37.424Z,20.37
2017-08-13T14:39:05.308Z,20.41
2017-08-13T14:41:33.196Z,20.52
2017-08-13T14:44:01.017Z,20.50
2017-08-13T14:46:28.903Z,20.30
2017-08-13T14:48:56.787Z,20.26
2017-08-13T14:51:24.645Z,20.46
2017-08-13T14:53:52.433Z,20.61
2017-08-13T14:56:20.278Z,20.55
2017-08-13T14:58:48.170Z,20.24
2017-08-13T15:01:16.013Z,20.04
2017-08-13T15:03:43.871Z,19.98
2017-08-13T15:06:11.741Z,20.10
2017-08-13T15:08:39.724Z,20.20
2017-08-13T15:11:07.571Z,20.29
2017-08-13T15:13:35.489Z,20.29
2017-08-13T15:16:03.338Z,20.20
2017-08-13T15:18:31.176Z,20.12
2017-08-13T15:20:59.055Z,20.01
2017-08-13T15:23:26.893Z,19.95
2017-08-13T15:25:54.786Z,19.96
2017-08-13T15:28:22.625Z,20.00
2017-08-13T15:30:50.505Z,20.07
2017-08-13T15:33:18.365Z,20.15
2017-08-13T15:35:46.418Z,20.17
2017-08-13T15:38:14.247Z,20.25
2017-08-13T15:40:42.132Z,20.20
2017-08-13T15:43:09.952Z,20.07
2017-08-13T15:45:37.839Z,19.96
2017-08-13T15:48:05.706Z,19.84
2017-08-13T15:50:33.611Z,19.71
2017-08-13T15:53:01.443Z,19.68
2017-08-13T15:55:29.317Z,19.74
2017-08-13T15:57:57.162Z,19.80
2017-08-13T16:00:24.994Z,19.86
2017-08-13T16:02:52.878Z,19.89
2017-08-13T16:05:20.693Z,19.83
2017-08-13T16:07:48.617Z,19.85
2017-08-13T16:10:16.439Z,19.87
2017-08-13T16:12:44.380Z,19.90
2017-08-13T16:15:12.257Z,19.93
2017-08-13T16:17:40.146Z,19.94
2017-08-13T16:20:08.044Z,19.92
2017-08-13T16:22:35.985Z,19.94
2017-08-13T16:25:03.875Z,19.90
2017-08-13T16:27:31.792Z,19.84
2017-08-13T16:29:59.638Z,19.78
2017-08-13T16:32:27.520Z,19.71
2017-08-13T16:34:55.338Z,19.71
2017-08-13T16:37:23.160Z,19.68
2017-08-13T16:39:51.050Z,19.67
2017-08-13T16:42:18.856Z,19.73
2017-08-13T16:44:46.759Z,19.79
2017-08-13T16:47:14.664Z,19.82
2017-08-13T16:49:42.595Z,19.79
2017-08-13T16:52:10.436Z,19.76
2017-08-13T16:54:38.301Z,19.75
2017-08-13T16:57:06.175Z,19.77
2017-08-13T16:59:34.044Z,19.78
2017-08-13T17:02:01.858Z,19.80
2017-08-13T17:04:29.747Z,19.78
2017-08-13T17:06:57.630Z,19.73
2017-08-13T17:09:25.476Z,19.69
2017-08-13T17:11:53.357Z,19.62
2017-08-13T17:14:21.243Z,19.52
2017-08-13T17:16:49.184Z,19.44
2017-08-13T17:19:17.049Z,19.31
2017-08-13T17:21:44.960Z,19.23
2017-08-13T17:24:12.796Z,19.12
2017-08-13T17:26:40.672Z,19.05
2017-08-13T17:29:08.511Z,19.05
2017-08-13T17:31:36.380Z,19.09
2017-08-13T17:34:04.225Z,19.08
2017-08-13T17:36:32.112Z,19.05
2017-08-13T17:38:59.938Z,18.99
2017-08-13T17:41:27.772Z,18.87
2017-08-13T17:43:55.663Z,18.75
2017-08-13T17:46:23.508Z,18.69
2017-08-13T17:48:51.395Z,18.64
2017-08-13T17:51:19.237Z,18.63
2017-08-13T17:53:47.257Z,18.60
2017-08-13T17:56:15.122Z,18.57
2017-08-13T17:58:42.987Z,18.47
2017-08-13T18:01:10.830Z,18.35
2017-08-13T18:03:38.703Z,18.21
2017-08-13T18:06:06.648Z,18.10
2017-08-13T18:08:34.543Z,18.02
2017-08-13T18:11:02.381Z,17.91
2017-08-13T18:13:30.137Z,17.83
2017-08-13T18:15:57.986Z,17.74
2017-08-13T18:18:25.816Z,17.65
2017-08-13T18:20:53.693Z,17.54
2017-08-13T18:23:21.566Z,17.49
2017-08-13T18:25:49.421Z,17.50
2017-08-13T18:28:17.280Z,17.41
2017-08-13T18:30:45.262Z,17.38
2017-08-13T18:33:13.085Z,17.44
2017-08-13T18:35:40.977Z,17.47
2017-08-13T18:38:08.824Z,17.46
2017-08-13T18:40:36.712Z,17.30
2017-08-13T18:43:04.569Z,17.01
2017-08-13T18:45:32.424Z,16.68
2017-08-13T18:48:00.335Z,16.45
2017-08-13T18:50:28.190Z,16.23
2017-08-13T18:52:56.057Z,16.03
2017-08-13T18:55:23.881Z,15.86
2017-08-13T18:57:51.791Z,15.73
2017-08-13T19:00:19.657Z,15.63
2017-08-13T19:02:47.550Z,15.54
2017-08-13T19:05:15.393Z,15.48
2017-08-13T19:07:43.322Z,15.38
2017-08-13T19:10:11.196Z,15.29
2017-08-13T19:12:38.965Z,15.21
2017-08-13T19:15:06.802Z,15.12
2017-08-13T19:17:34.711Z,15.04
2017-08-13T19:20:02.749Z,14.95
2017-08-13T19:22:30.609Z,14.88
2017-08-13T19:24:58.494Z,14.81
2017-08-13T19:27:26.351Z,14.74
2017-08-13T19:29:54.243Z,14.67
2017-08-13T19:32:22.093Z,14.61
2017-08-13T19:34:50.018Z,14.56
2017-08-13T19:37:17.856Z,14.51
2017-08-13T19:39:45.735Z,14.46
2017-08-13T19:42:13.574Z,14.41
2017-08-13T19:44:41.478Z,14.32
2017-08-13T19:47:09.305Z,14.24
2017-08-13T19:49:37.103Z,14.19
2017-08-13T19:52:04.976Z,14.12
2017-08-13T19:54:32.890Z,14.06
2017-08-13T19:57:00.655Z,14.02
2017-08-13T19:59:28.497Z,13.97
2017-08-13T20:01:56.387Z,13.90
2017-08-13T20:04:24.255Z,13.84
2017-08-13T20:06:52.186Z,13.79
2017-08-13T20:09:20.032Z,13.75
2017-08-13T20:11:47.945Z,13.72
2017-08-13T20:14:15.808Z,13.70
2017-08-13T20:16:43.720Z,13.67
2017-08-13T20:19:11.534Z,13.62
2017-08-13T20:21:39.425Z,13.59
2017-08-13T20:24:07.235Z,13.53
2017-08-13T20:26:35.100Z,13.48
2017-08-13T20:29:02.901Z,13.42
2017-08-13T20:31:30.815Z,13.34
2017-08-13T20:33:58.678Z,13.31
2017-08-13T20:36:26.531Z,13.24
2017-08-13T20:38:54.447Z,13.19
2017-08-13T20:41:22.273Z,13.11
2017-08-13T20:43:50.060Z,13.03
2017-08-13T20:46:17.799Z,12.98
2017-08-13T20:48:45.693Z,12.94
2017-08-13T20:51:13.508Z,12.90
2017-08-13T20:53:41.427Z,12.88
2017-08-13T20:56:09.263Z,12.83
2017-08-13T20:58:37.142Z,12.76
2017-08-13T21:01:04.988Z,12.70
2017-08-13T21:03:32.818Z,12.66
2017-08-13T21:06:00.717Z,12.64
2017-08-13T21:08:28.605Z,12.58
2017-08-13T21:10:56.505Z,12.56
2017-08-13T21:13:24.382Z,12.56
2017-08-13T21:15:52.255Z,12.55
2017-08-13T21:18:20.102Z,12.53
2017-08-13T21:20:47.987Z,12.53
2017-08-13T21:23:15.740Z,12.51
2017-08-13T21:25:43.534Z,12.49
2017-08-13T21:28:11.342Z,12.46
2017-08-13T21:30:39.230Z,12.39
2017-08-13T21:33:07.096Z,12.33
2017-08-13T21:35:34.936Z,12.30
2017-08-13T21:38:02.706Z,12.32
2017-08-13T21:40:30.536Z,12.30
2017-08-13T21:42:58.320Z,12.26
2017-08-13T21:45:26.172Z,12.21
2017-08-13T21:47:54.045Z,12.13
2017-08-13T21:50:21.855Z,12.07
2017-08-13T21:52:49.641Z,11.98
2017-08-13T21:55:17.450Z,11.91
2017-08-13T21:57:45.209Z,11.87
2017-08-13T22:00:13.078Z,11.79
2017-08-13T22:02:40.948Z,11.72
2017-08-13T22:05:08.791Z,11.72
2017-08-13T22:07:36.706Z,11.73
2017-08-13T22:10:04.531Z,11.73
2017-08-13T22:12:32.450Z,11.74
2017-08-13T22:15:00.269Z,11.78
2017-08-13T22:17:28.072Z,11.83
2017-08-13T22:19:55.939Z,11.88
2017-08-13T22:22:23.795Z,11.91
2017-08-13T22:24:51.697Z,11.92
2017-08-13T22:27:19.431Z,11.91
2017-08-13T22:29:47.300Z,11.87
2017-08-13T22:32:15.108Z,11.85
2017-08-13T22:34:42.975Z,11.83
2017-08-13T22:37:10.810Z,11.83
2017-08-13T22:39:38.684Z,11.79
2017-08-13T22:42:06.511Z,11.74
2017-08-13T22:44:34.385Z,11.72
2017-08-13T22:47:02.227Z,11.70
2017-08-13T22:49:30.080Z,11.66
2017-08-13T22:51:57.901Z,11.62
2017-08-13T22:54:25.705Z,11.58
2017-08-13T22:56:53.503Z,11.53
2017-08-13T22:59:21.309Z,11.56
2017-08-13T23:01:49.141Z,11.55
2017-08-13T23:04:16.978Z,11.47
2017-08-13T23:06:44.864Z,11.35
2017-08-13T23:09:12.702Z,11.29
2017-08-13T23:11:40.587Z,11.25
2017-08-13T23:14:08.376Z,11.20
2017-08-13T23:16:36.367Z,11.16
2017-08-13T23:19:04.189Z,11.15
2017-08-13T23:21:32.060Z,11.09
2017-08-13T23:23:59.866Z,11.04
2017-08-13T23:26:27.710Z,11.00
2017-08-13T23:28:55.592Z,10.94
2017-08-13T23:31:23.423Z,10.90
2017-08-13T23:33:51.273Z,10.87
2017-08-13T23:36:19.106Z,10.88
2017-08-13T23:38:46.961Z,10.94
2017-08-13T23:41:14.798Z,11.02
2017-08-13T23:43:42.688Z,11.07
2017-08-13T23:46:10.503Z,11.10
2017-08-13T23:48:38.332Z,11.14
2017-08-13T23:51:06.251Z,11.18
2017-08-13T23:53:34.048Z,11.11
2017-08-13T23:56:01.904Z,11.07
2017-08-13T23:58:29.732Z,10.99
